Latest Weather Observations for Lady Elliot Island

IDQ60801

Issued at 6:31 pm EST Wednesday 10 February 2016 (issued every 30 minutes, with the page automatically refreshed every 10 minutes)

About weather observations | Map of weather stations | Latest weather observations for QLD | Other Formats
Station Details ID: 039059 Name: LADY ELLIOT ISLAND Lat: -24.11 Lon: 152.72 Height: 3.6 m
Data from the previous 72 hours. | See also: Recent months at Lady Elliot Island
Date/Time
EST
Temp
°C
App
Temp
°C
Dew
Point
Rel
Hum
%
Delta-T
°C
Wind Press
QNH
hPa
Press
MSL
hPa
Rain
since 9 am
mm
Dir
 
Spd
km/h
Gust
km/h
Spd
kts
Gust
kts
10/06:30pm 26.4 24.0 20.3 69 4.0 SE 33 44 18 24 1010.0 1010.0 0.0
10/06:00pm 26.7 23.7 19.9 66 4.4 SE 35 44 19 24 1009.7 1009.7 0.0
10/05:30pm 26.8 23.6 20.2 67 4.3 SE 37 46 20 25 1009.5 1009.5 0.0
10/05:00pm 27.2 24.4 20.3 66 4.5 SE 35 44 19 24 1009.1 1009.1 0.0
10/04:30pm 28.0 24.8 19.5 60 5.5 SE 35 44 19 24 1008.8 1008.8 0.0
10/04:00pm 28.3 25.9 21.1 65 4.8 SE 35 48 19 26 1008.7 1008.7 0.0
10/03:30pm 28.6 27.0 21.9 67 4.5 SE 33 43 18 23 1008.6 1008.6 0.0
10/03:00pm 28.9 26.9 21.1 62 5.2 SE 33 43 18 23 1008.8 1008.8 0.0
10/02:30pm 28.9 26.7 20.4 60 5.6 SE 32 41 17 22 1009.0 1009.0 0.0
10/02:00pm 29.0 27.1 20.9 61 5.4 SE 32 41 17 22 1009.2 1009.2 0.0
10/01:30pm 29.2 29.3 21.9 64 4.9 SE 24 32 13 17 1009.6 1009.6 0.0
10/01:00pm 28.7 29.6 22.0 67 4.5 SE 20 26 11 14 1010.0 1010.0 0.0
10/12:30pm 27.4 25.8 21.9 72 3.7 SE 33 43 18 23 1010.2 1010.2 0.0
10/12:00pm 28.8 26.3 21.6 65 4.8 SE 37 48 20 26 1010.3 1010.3 0.0
10/11:30am 29.4 28.5 22.2 65 4.9 SE 30 39 16 21 1010.4 1010.4 0.0
10/11:00am 28.6 27.0 21.9 67 4.5 SE 33 46 18 25 1010.5 1010.5 0.0
10/10:30am 27.4 25.7 21.4 70 4.0 SE 32 39 17 21 1010.7 1010.7 0.0
10/10:00am 27.8 27.3 21.5 68 4.2 SE 26 35 14 19 1010.8 1010.8 0.0
10/09:30am 26.4 26.1 21.9 76 3.0 SE 26 39 14 21 1010.6 1010.6 0.0
10/09:00am 27.5 26.0 21.8 71 3.8 SE 32 41 17 22 1010.7 1010.7 1.0
10/08:30am 27.2 25.8 21.2 69 4.0 SE 30 37 16 20 1010.5 1010.5 1.0
10/08:00am 25.9 26.4 22.0 79 2.6 SSE 22 30 12 16 1010.5 1010.5 1.0
10/07:30am 24.6 22.9 21.7 84 1.9 SE 33 48 18 26 1010.5 1010.5 1.0
10/07:19am 25.8 24.6 20.9 74 3.2 SSE 28 48 15 26 1010.5 1010.5 0.6
10/07:00am 25.7 25.1 20.5 73 3.4 SSE 24 35 13 19 1010.3 1010.3 0.6
10/06:30am 25.7 25.1 20.5 73 3.4 SSE 24 39 13 21 1010.3 1010.3 0.6
10/06:00am 25.7 23.9 20.3 72 3.5 SE 30 41 16 22 1009.9 1009.9 0.6
10/05:30am 25.5 23.9 20.0 71 3.6 SE 28 39 15 21 1009.5 1009.5 0.6
10/05:00am 25.4 22.7 19.2 68 4.0 SE 32 43 17 23 1009.3 1009.3 0.6
10/04:30am 25.6 22.6 19.0 67 4.2 SE 33 44 18 24 1009.0 1009.0 0.6
10/04:00am 25.6 22.2 18.9 66 4.3 SE 35 44 19 24 1009.1 1009.1 0.6
10/03:30am 25.2 23.4 19.5 70 3.7 SSE 28 44 15 24 1009.3 1009.3 0.6
10/03:00am 25.7 22.6 18.3 63 4.7 SE 32 41 17 22 1009.4 1009.4 0.6
10/02:30am 25.8 22.1 18.4 63 4.7 ESE 35 46 19 25 1009.5 1009.5 0.6
10/02:00am 25.9 21.9 17.6 60 5.2 SE 35 43 19 23 1009.7 1009.7 0.6
10/01:30am 25.7 21.9 18.1 63 4.8 SE 35 44 19 24 1010.0 1010.0 0.6
10/01:00am 25.9 22.1 18.9 65 4.5 SE 37 46 20 25 1010.2 1010.2 0.6
10/12:30am 25.9 21.6 18.7 64 4.6 SE 39 50 21 27 1010.6 1010.6 0.6
10/12:00am 26.0 21.6 19.3 66 4.3 SE 41 52 22 28 1011.0 1011.0 0.6
 
Date/Time
EST
Temp
°C
App
Temp
°C
Dew
Point
Rel
Hum
%
Delta-T
°C
Wind Press
QNH
hPa
Press
MSL
hPa
Rain
since 9 am
mm
Dir
 
Spd
km/h
Gust
km/h
Spd
kts
Gust
kts
09/11:30pm 25.9 22.8 19.6 68 4.1 SE 35 50 19 27 1011.5 1011.5 0.6
09/11:00pm 25.8 22.6 20.3 71 3.6 SE 37 52 20 28 1011.9 1011.9 0.6
09/10:52pm 25.8 23.0 19.4 67 4.1 SE 33 52 18 28 1012.0 1012.0 0.6
09/10:30pm 25.9 21.9 19.4 67 4.2 SE 39 50 21 27 1012.1 1012.1 0.6
09/10:00pm 26.0 21.0 18.8 64 4.6 SE 43 54 23 29 1012.3 1012.3 0.6
09/09:30pm 26.0 21.1 19.1 65 4.4 SE 43 54 23 29 1012.5 1012.5 0.6
09/09:00pm 25.9 21.6 19.5 68 4.1 SE 41 52 22 28 1012.7 1012.7 0.6
09/08:30pm 26.1 21.4 18.6 63 4.8 SE 41 54 22 29 1012.6 1012.6 0.6
09/08:00pm 26.1 22.6 20.3 70 3.8 SE 39 52 21 28 1012.7 1012.7 0.6
09/07:30pm 26.0 21.7 19.5 67 4.2 SE 41 54 22 29 1012.7 1012.7 0.6
09/07:00pm 25.9 21.6 19.5 68 4.1 SE 41 54 22 29 1012.6 1012.6 0.6
09/06:30pm 26.1 21.6 19.1 65 4.5 SE 41 50 22 27 1012.3 1012.3 0.6
09/06:14pm 26.2 21.6 18.9 64 4.7 SE 41 59 22 32 1012.0 1012.0 0.6
09/06:00pm 26.1 21.8 19.6 67 4.2 SE 41 54 22 29 1011.9 1011.9 0.6
09/05:30pm 26.0 21.5 19.8 68 4.0 SE 43 54 23 29 1011.4 1011.4 0.6
09/05:00pm 25.5 22.1 20.6 74 3.2 SE 39 56 21 30 1011.3 1011.3 0.6
09/04:30pm 26.9 23.2 20.0 66 4.5 SE 39 52 21 28 1011.0 1011.0 0.2
09/04:00pm 26.9 23.6 20.8 69 4.0 SE 39 50 21 27 1011.0 1011.0 0.2
09/03:30pm 28.4 24.0 19.3 57 5.9 SE 41 52 22 28 1011.2 1011.2 0.2
09/03:00pm 28.5 24.1 19.2 57 6.0 SE 41 50 22 27 1011.4 1011.4 0.2
09/02:30pm 27.9 23.8 19.9 61 5.2 SE 41 52 22 28 1011.4 1011.4 0.2
09/02:00pm 28.6 24.2 20.1 60 5.6 SE 43 56 23 30 1011.4 1011.4 0.2
09/01:30pm 28.4 24.9 21.2 65 4.8 SE 41 52 22 28 1011.7 1011.7 0.2
09/01:00pm 28.8 24.7 19.9 58 5.8 SE 41 52 22 28 1012.0 1012.0 0.2
09/12:30pm 29.0 25.1 19.5 56 6.2 SE 39 50 21 27 1012.0 1012.0 0.2
09/12:00pm 28.8 25.6 19.4 56 6.1 SE 35 46 19 25 1012.3 1012.3 0.2
09/11:30am 28.6 25.2 20.6 62 5.3 SE 39 48 21 26 1012.3 1012.3 0.2
09/11:00am 28.5 30.1 28.2 98 0.2 SE 37 50 20 27 1012.4 1012.4 0.2
09/10:30am 27.4 28.0 27.4 100 0.0 SE 39 48 21 26 1012.5 1012.5 0.2
09/10:00am 27.4 28.3 27.3 99 0.1 SE 37 52 20 28 1012.6 1012.6 0.2
09/09:30am 27.7 29.1 27.4 98 0.2 SE 35 46 19 25 1012.7 1012.7 0.0
09/09:00am 27.3 28.2 27.2 99 0.1 SE 37 48 20 26 1012.6 1012.6 1.2
09/08:30am 27.5 28.5 27.4 99 0.1 SE 37 46 20 25 1012.3 1012.3 1.2
09/08:00am 26.8 27.0 26.7 99 0.1 SE 39 50 21 27 1012.2 1012.2 1.2
09/07:30am 26.3 26.2 26.3 100 0.0 SE 39 50 21 27 1012.2 1012.2 1.2
09/07:00am 25.9 25.5 25.9 100 0.0 SE 39 46 21 25 1011.9 1011.9 1.2
09/06:30am 25.9 25.3 25.6 98 0.2 SE 39 50 21 27 1011.7 1011.7 1.2
09/06:08am 25.0 25.8 24.4 96 0.4 ESE 28 46 15 25 1011.5 1011.5 1.2
09/06:00am 24.4 25.9 24.4 100 0.0 ESE 24 32 13 17 1011.6 1011.6 1.2
09/05:30am 24.1 22.6 24.1 100 0.0 ESE 39 50 21 27 1011.5 1011.5 1.2
09/05:28am 24.3 23.7 24.3 100 0.0 ESE 35 50 19 27 1011.4 1011.4 1.2
09/05:12am 24.5 24.5 24.4 99 0.1 SE 32 54 17 29 1011.0 1011.0 0.8
09/05:00am 24.1 24.1 23.8 98 0.2 SSE 30 44 16 24 1010.9 1010.9 0.4
09/04:38am 24.4 - - - - SE 35 54 19 29 1010.9 1010.9 0.0
09/04:30am 25.3 25.9 25.3 100 0.0 SE 32 43 17 23 1010.7 1010.7 0.0
09/04:03am 25.5 26.2 25.5 100 0.0 SE 32 50 17 27 1010.6 1010.6 0.0
09/04:00am 25.5 25.8 25.2 98 0.2 SE 33 50 18 27 1010.6 1010.6 0.0
09/03:30am 25.0 25.2 24.7 98 0.2 SE 32 41 17 22 1010.6 1010.6 0.0
09/03:00am 25.4 25.8 25.3 99 0.1 SE 33 43 18 23 1010.6 1010.6 0.0
09/02:30am 25.6 26.7 25.5 99 0.1 SE 30 39 16 21 1010.6 1010.6 0.0
09/02:00am 25.6 27.4 25.5 99 0.1 SSE 26 39 14 21 1011.1 1011.1 0.0
09/01:30am 25.6 26.3 25.5 99 0.1 SE 32 39 17 21 1011.5 1011.5 0.0
09/01:00am 25.6 26.2 25.6 100 0.0 SE 33 43 18 23 1011.6 1011.6 0.0
09/12:30am 25.8 26.1 25.8 100 0.0 SE 35 43 19 23 1011.8 1011.8 0.0
09/12:00am 25.7 26.0 25.7 100 0.0 SE 35 46 19 25 1012.2 1012.2 0.0
 
Date/Time
EST
Temp
°C
App
Temp
°C
Dew
Point
Rel
Hum
%
Delta-T
°C
Wind Press
QNH
hPa
Press
MSL
hPa
Rain
since 9 am
mm
Dir
 
Spd
km/h
Gust
km/h
Spd
kts
Gust
kts
08/11:30pm 25.9 26.3 25.9 100 0.0 SE 35 48 19 26 1012.6 1012.6 0.0
08/11:00pm 26.0 27.0 25.9 99 0.1 SE 32 43 17 23 1012.8 1012.8 0.0
08/10:30pm 26.1 26.9 26.0 99 0.1 SE 33 41 18 22 1013.2 1013.2 0.0
08/10:00pm 26.0 26.4 25.9 99 0.1 SE 35 43 19 23 1013.4 1013.4 0.0
08/09:30pm 26.1 26.4 25.8 98 0.2 SE 35 46 19 25 1013.3 1013.3 0.0
08/09:00pm 26.0 27.0 26.0 100 0.0 SE 32 41 17 22 1013.1 1013.1 0.0
08/08:30pm 26.1 26.8 25.8 98 0.2 SE 33 46 18 25 1013.1 1013.1 0.0
08/08:00pm 26.2 26.6 25.9 98 0.2 SE 35 44 19 24 1012.8 1012.8 0.0
08/07:30pm 26.3 26.9 26.3 100 0.0 SE 35 48 19 26 1012.4 1012.4 0.0
08/07:00pm 26.3 25.9 25.2 94 0.8 SE 37 46 20 25 1012.3 1012.3 0.0
08/06:30pm 26.3 24.1 20.7 71 3.7 SE 33 44 18 24 1012.1 1012.1 0.0
08/06:00pm 26.5 23.2 19.2 64 4.7 SE 35 48 19 26 1011.6 1011.6 0.0
08/05:30pm 26.5 22.8 19.2 64 4.7 SE 37 48 20 26 1011.3 1011.3 0.0
08/05:00pm 27.3 23.7 19.3 61 5.2 SE 37 50 20 27 1010.8 1010.8 0.0
08/04:30pm 27.5 23.8 20.0 63 4.9 SE 39 52 21 28 1010.5 1010.5 0.0
08/04:00pm 27.7 23.7 20.2 63 4.9 SE 41 52 22 28 1010.2 1010.2 0.0
08/03:30pm 27.3 23.3 19.4 62 5.1 SE 39 52 21 28 1010.5 1010.5 0.0
08/03:00pm 27.3 22.9 19.4 62 5.1 SE 41 48 22 26 1010.7 1010.7 0.0
08/02:30pm 28.2 24.6 19.4 59 5.7 SE 37 50 20 27 1011.1 1011.1 0.0
08/02:00pm 28.0 25.0 19.9 61 5.3 SE 35 48 19 26 1011.4 1011.4 0.0
08/01:30pm 28.8 26.1 20.5 61 5.5 SE 35 46 19 25 1011.5 1011.5 0.0
08/01:00pm 28.7 26.2 20.2 60 5.6 SE 33 44 18 24 1011.7 1011.7 0.0
08/12:30pm 28.8 25.7 20.5 61 5.5 SE 37 46 20 25 1012.2 1012.2 0.0
08/12:00pm 28.5 25.8 21.3 65 4.8 SE 37 48 20 26 1012.4 1012.4 0.0
08/11:30am 28.2 26.0 20.3 62 5.2 SE 32 43 17 23 1012.5 1012.5 0.0
08/11:00am 27.9 25.2 20.5 64 4.9 SE 35 44 19 24 1012.8 1012.8 0.0
08/10:30am 27.6 24.9 20.5 65 4.7 SE 35 46 19 25 1012.9 1012.9 0.0
08/10:00am 27.0 25.6 21.1 70 3.9 SSE 30 41 16 22 1012.9 1012.9 0.0
08/09:30am 28.0 26.8 21.6 68 4.3 SE 30 41 16 22 1012.8 1012.8 0.0
08/09:00am 27.0 25.1 20.9 69 4.0 SE 32 46 17 25 1012.7 1012.7 0.8
08/08:30am 26.6 24.7 21.0 71 3.7 SE 32 44 17 24 1012.8 1012.8 0.8
08/08:00am 26.7 25.4 21.4 72 3.5 SSE 30 41 16 22 1012.9 1012.9 0.8
08/07:30am 26.3 25.1 21.5 75 3.2 SSE 30 43 16 23 1012.6 1012.6 0.8
08/07:00am 26.4 24.9 21.8 76 3.1 SE 32 48 17 26 1012.2 1012.2 0.8
08/06:49am 26.1 24.8 21.4 75 3.1 SE 30 48 16 26 1012.1 1012.1 0.8
08/06:30am 25.9 23.8 21.7 77 2.8 SE 35 48 19 26 1012.1 1012.1 0.8
08/06:00am 26.1 23.4 21.3 75 3.2 SE 37 46 20 25 1011.8 1011.8 0.8
08/05:30am 26.1 23.2 20.9 73 3.4 SE 37 48 20 26 1011.5 1011.5 0.8
08/05:00am 25.7 22.9 20.3 72 3.5 SE 35 43 19 23 1011.5 1011.5 0.8
08/04:30am 25.3 22.0 21.5 79 2.5 SE 41 48 22 26 1011.2 1011.2 0.8
08/04:00am 25.5 22.9 22.1 81 2.3 SE 39 48 21 26 1010.8 1010.8 0.8
08/03:30am 25.2 23.0 21.4 79 2.5 SE 35 50 19 27 1011.0 1011.0 0.8
08/03:00am 25.8 23.2 22.1 80 2.5 SE 39 52 21 28 1011.1 1011.1 0.8
08/02:30am 25.4 22.5 21.6 79 2.5 SE 39 48 21 26 1011.1 1011.1 0.8
08/02:00am 25.6 23.7 22.0 80 2.4 SE 35 44 19 24 1011.2 1011.2 0.8
08/01:30am 25.5 24.0 22.8 85 1.8 SE 35 44 19 24 1011.6 1011.6 0.8
08/01:00am 25.8 24.1 21.7 78 2.7 SE 33 43 18 23 1011.9 1011.9 0.8
08/12:30am 25.6 25.1 22.8 84 1.9 SE 30 44 16 24 1011.9 1011.9 0.8
08/12:00am 25.5 25.5 23.0 86 1.7 SE 28 39 15 21 1012.3 1012.3 0.8
 
Date/Time
EST
Temp
°C
App
Temp
°C
Dew
Point
Rel
Hum
%
Delta-T
°C
Wind Press
QNH
hPa
Press
MSL
hPa
Rain
since 9 am
mm
Dir
 
Spd
km/h
Gust
km/h
Spd
kts
Gust
kts
07/11:30pm 25.7 23.7 22.6 83 2.1 SE 37 48 20 26 1012.6 1012.6 0.8
07/11:00pm 25.0 24.6 23.1 89 1.3 SE 30 48 16 26 1012.8 1012.8 0.8
07/10:30pm 24.7 23.0 22.5 87 1.5 SE 35 54 19 29 1012.9 1012.9 0.2
07/10:09pm 25.5 24.9 22.7 84 1.9 SE 30 48 16 26 1012.9 1012.9 0.2
07/10:00pm 25.2 24.7 22.1 83 2.1 SSE 28 39 15 21 1012.8 1012.8 0.2
07/09:30pm 25.8 23.9 22.7 83 2.1 SE 37 46 20 25 1012.6 1012.6 0.2
07/09:00pm 25.7 23.4 22.7 83 2.0 SE 39 50 21 27 1012.4 1012.4 0.2
07/08:30pm 25.7 24.7 23.0 85 1.8 SE 33 46 18 25 1012.0 1012.0 0.2
07/08:00pm 25.9 25.1 23.3 85 1.8 SE 33 46 18 25 1011.8 1011.8 0.2
07/07:30pm 26.0 25.4 23.4 85 1.8 SE 32 43 17 23 1011.5 1011.5 0.2
07/07:00pm 26.3 25.0 23.1 82 2.2 SE 35 44 19 24 1011.1 1011.1 0.2

Other Formats:

Comma delimited format used in spreadsheet applications
http://www.bom.gov.au/fwo/IDQ60801/IDQ60801.94388.axf

JavaScript Object Notation format (JSON) in row-major order
http://www.bom.gov.au/fwo/IDQ60801/IDQ60801.94388.json